• Join FlightAware (Why Join?)
  • Login
  • US Flag 
05:46AM EST


 

Airport Tracker/Info


-or-


 

Live Flight TrackerFlight Track Log ✈ AAY825 ✈ 28-Jul-2014 ✈ KDSM - KPIE

Flight Track Log - Related Links

Times and Time Zones

All times are in EDT time to prevent confusion due to time zone crossing. See the AAY825 flight status page for this flight to view local times or setup timezone preferences in your user account.

Time Position Orientation Groundspeed Altitude Reporting Facility
EDT Latitude Longitude Course Direction KTS MPH feet Rate Location/Type
11:42AM 41.5444 -93.6417 87° East 150 173 1,400  Level Minneapolis Center
11:44AM 41.5469 -93.5728 87° East 206 237 3,600 1,980 Climbing Minneapolis Center
11:45AM 41.4781 -93.5300 155° Southeast 270 311 5,800 2,400 Climbing Minneapolis Center
11:46AM 41.4033 -93.4839 155° Southeast 293 337 8,600 2,280 Climbing Minneapolis Center
11:47AM 41.3322 -93.4353 153° Southeast 310 357 10,600 1,740 Climbing Minneapolis Center
11:48AM 41.2244 -93.3558 151° Southeast 349 402 12,300 1,980 Climbing Minneapolis Center
11:49AM 41.1244 -93.2847 152° Southeast 391 450 14,800 2,220 Climbing Minneapolis Center
11:50AM 41.0422 -93.2267 152° Southeast 406 467 16,600 1,860 Climbing Chicago Center
11:51AM 40.9125 -93.1344 152° Southeast 437 503 18,400 1,740 Climbing Chicago Center
11:52AM 40.7997 -93.0536 152° Southeast 457 526 20,300 1,680 Climbing Chicago Center
11:53AM 40.6836 -92.9731 152° Southeast 469 540 22,000 1,560 Climbing Chicago Center
11:54AM 40.5650 -92.8889 152° Southeast 481 554 23,600 1,380 Climbing Chicago Center
11:55AM 40.4472 -92.7947 149° Southeast 498 573 24,900 1,140 Climbing Chicago Center
11:56AM 40.3419 -92.6431 132° Southeast 517 595 26,000 1,200 Climbing Chicago Center
11:57AM 40.2467 -92.4989 131° Southeast 519 597 27,500 1,380 Climbing Chicago Center
11:58AM 40.1286 -92.3222 131° Southeast 534 615 28,900 1,260 Climbing Chicago Center
11:59AM 40.0303 -92.1772 132° Southeast 534 615 30,200 960 Climbing Chicago Center
12:00PM 39.9314 -92.0314 131° Southeast 537 618 31,000 480 Climbing Chicago Center
12:01PM 39.7908 -91.8217 131° Southeast 550 633 31,400 420 Climbing Kansas City Center
12:02PM 39.6883 -91.6725 132° Southeast 553 636 32,100 660 Climbing Kansas City Center
12:03PM 39.5708 -91.5422 139° Southeast 556 640 32,800 420 Climbing Kansas City Center
12:04PM 39.4197 -91.4125 146° Southeast 556 640 33,000 60 Climbing Kansas City Center
12:06PM 39.2944 -91.2992 145° Southeast 555 639 33,000  Level Kansas City Center
12:07PM 39.1711 -91.1850 144° Southeast 552 635 33,000  Level Kansas City Center
12:08PM 39.0450 -91.0714 145° Southeast 551 634 33,000  Level Kansas City Center
12:09PM 38.9206 -90.9603 145° Southeast 551 634 33,000  Level Kansas City Center
12:10PM 38.7703 -90.8267 145° Southeast 551 634 33,000  Level Kansas City Center
12:11PM 38.6447 -90.7167 146° Southeast 551 634 33,000  Level Kansas City Center
12:12PM 38.5075 -90.5917 145° Southeast 548 631 33,000  Level Kansas City Center
12:13PM 38.4003 -90.4986 146° Southeast 547 629 33,000  Level Kansas City Center
12:14PM 38.2469 -90.3650 146° Southeast 554 638 33,000  Level Kansas City Center
12:15PM 38.1231 -90.2567 145° Southeast 551 634 33,000  Level Kansas City Center
12:16PM 37.9978 -90.1481 146° Southeast 548 631 33,000  Level Kansas City Center
12:17PM 37.8658 -90.0350 146° Southeast 547 629 33,000  Level Kansas City Center
12:18PM 37.7483 -89.9342 146° Southeast 544 626 33,000  Level Kansas City Center
12:19PM 37.5981 -89.8033 145° Southeast 545 627 33,000  Level Kansas City Center
12:20PM 37.4839 -89.7039 145° Southeast 543 625 33,000  Level Kansas City Center
12:21PM 37.3600 -89.6003 146° Southeast 543 625 33,000  Level Memphis Center
12:22PM 37.2358 -89.4933 146° Southeast 543 625 33,000  Level Memphis Center
12:23PM 37.1125 -89.3889 146° Southeast 538 619 33,000  Level Memphis Center
12:24PM 36.9886 -89.2839 146° Southeast 538 619 33,000  Level Memphis Center
12:25PM 36.8656 -89.1786 146° Southeast 537 618 33,000  Level Memphis Center
12:26PM 36.7417 -89.0750 146° Southeast 535 616 33,000  Level Memphis Center
12:27PM 36.6169 -88.9714 146° Southeast 534 615 33,000  Level Memphis Center
12:28PM 36.4928 -88.8689 146° Southeast 534 615 33,000  Level Memphis Center
12:29PM 36.3697 -88.7669 146° Southeast 530 610 33,000  Level Memphis Center
12:30PM 36.2225 -88.6464 147° Southeast 529 609 33,000  Level Memphis Center
12:31PM 36.1003 -88.5464 147° Southeast 528 608 33,000  Level Memphis Center
12:32PM 35.9769 -88.4467 147° Southeast 527 606 33,000  Level Memphis Center
12:33PM 35.8544 -88.3475 147° Southeast 527 606 33,000  Level Memphis Center
12:34PM 35.7306 -88.2483 147° Southeast 527 606 33,000  Level Memphis Center
12:35PM 35.5994 -88.1394 146° Southeast 527 606 33,000  Level Memphis Center
12:36PM 35.4758 -88.0422 147° Southeast 526 605 33,000  Level Memphis Center
12:37PM 35.3556 -87.9458 147° Southeast 525 604 33,000  Level Memphis Center
12:38PM 35.2336 -87.8489 147° Southeast 525 604 33,000  Level Memphis Center
12:39PM 35.1103 -87.7517 147° Southeast 525 604 33,000  Level Memphis Center
12:40PM 34.9631 -87.6339 147° Southeast 525 604 33,000  Level Memphis Center
12:42PM 34.8414 -87.5383 147° Southeast 524 603 33,000  Level Memphis Center
12:43PM 34.7192 -87.4425 147° Southeast 522 601 33,000  Level Memphis Center
12:44PM 34.5975 -87.3453 147° Southeast 520 598 33,000  Level Memphis Center
12:45PM 34.4728 -87.2486 147° Southeast 517 595 33,000  Level Memphis Center
12:46PM 34.3514 -87.1556 148° Southeast 517 595 33,000  Level Memphis Center
12:47PM 34.2303 -87.0617 147° Southeast 517 595 33,000  Level Memphis Center
12:48PM 34.1103 -86.9689 147° Southeast 516 594 33,000  Level Memphis Center
12:49PM 33.9914 -86.8781 148° Southeast 511 588 33,000  Level Memphis Center
12:50PM 33.8639 -86.7806 148° Southeast 510 587 33,000  Level Atlanta Center
12:51PM 33.7450 -86.6894 147° Southeast 510 587 33,000  Level Atlanta Center
12:52PM 33.6236 -86.6008 149° Southeast 510 587 33,000  Level Atlanta Center
12:53PM 33.5022 -86.5100 148° Southeast 510 587 33,000  Level Atlanta Center
12:54PM 33.3769 -86.4094 146° Southeast 505 581 33,000  Level Atlanta Center
12:55PM 33.2575 -86.3217 148° Southeast 505 581 33,000  Level Atlanta Center
12:56PM 33.1381 -86.2319 148° Southeast 505 581 33,000  Level Atlanta Center
12:57PM 33.0206 -86.1447 148° Southeast 505 581 33,000  Level Atlanta Center
12:58PM 32.9011 -86.0478 146° Southeast 509 586 33,000  Level Atlanta Center
12:59PM 32.7878 -85.9711 150° Southeast 504 580 33,000  Level Atlanta Center
01:00PM 32.6700 -85.8844 148° Southeast 504 580 33,000  Level Atlanta Center
01:01PM 32.5522 -85.7983 148° Southeast 504 580 33,000  Level Atlanta Center
01:02PM 32.4344 -85.7097 148° Southeast 504 580 33,000  Level Atlanta Center
01:03PM 32.3147 -85.6242 149° Southeast 499 574 33,000  Level Atlanta Center
01:04PM 32.1967 -85.5386 148° Southeast 499 574 33,000  Level Atlanta Center
01:05PM 32.0933 -85.4633 148° Southeast 499 574 33,000  Level Atlanta Center
01:06PM 31.9772 -85.3806 149° Southeast 494 568 33,000  Level Atlanta Center
01:07PM 31.8617 -85.3019 150° Southeast 490 564 33,000  Level Jacksonville Center
01:08PM 31.7486 -85.2158 147° Southeast 482 555 33,000  Level Jacksonville Center
01:09PM 31.6350 -85.1375 150° Southeast 482 555 33,000  Level Jacksonville Center
01:10PM 31.5319 -85.0619 148° Southeast 482 555 33,000  Level Jacksonville Center
01:11PM 31.4186 -84.9839 150° Southeast 482 555 33,000  Level Jacksonville Center
01:12PM 31.3050 -84.9033 149° Southeast 477 549 33,000  Level Jacksonville Center
01:13PM 31.1892 -84.8281 151° Southeast 477 549 33,000  Level Jacksonville Center
01:14PM 31.0714 -84.7481 150° Southeast 483 556 33,000  Level Jacksonville Center
01:15PM 30.9597 -84.6708 149° Southeast 483 556 33,000  Level Jacksonville Center
01:16PM 30.8461 -84.5936 150° Southeast 477 549 33,000  Level Jacksonville Center
01:17PM 30.7364 -84.5167 149° Southeast 477 549 33,000  Level Jacksonville Center
01:18PM 30.6225 -84.4422 151° Southeast 472 543 33,000 -60 Level Jacksonville Center
01:19PM 30.5086 -84.3608 148° Southeast 472 543 32,900  Descending Jacksonville Center
01:20PM 30.3947 -84.2844 150° Southeast 472 543 33,000  Climbing Jacksonville Center
01:21PM 30.2847 -84.2108 150° Southeast 472 543 32,900  Descending Jacksonville Center
01:22PM 30.1728 -84.1372 150° Southeast 472 543 33,000  Climbing Jacksonville Center
01:23PM 30.0628 -84.0639 150° Southeast 461 531 33,000  Level Jacksonville Center
01:24PM 29.9508 -83.9906 150° Southeast 461 531 33,000  Level Jacksonville Center
01:25PM 29.8386 -83.9175 151° Southeast 461 531 33,000  Level Jacksonville Center
01:26PM 29.7264 -83.8444 151° Southeast 461 531 33,000  Level Jacksonville Center
01:27PM 29.6164 -83.7694 149° Southeast 461 531 33,000 -480 Level Jacksonville Center
01:28PM 29.5042 -83.6944 150° Southeast 461 531 32,100 -1,320 Descending Jacksonville Center
01:29PM 29.3772 -83.6122 151° Southeast 461 531 30,400 -1,800 Descending Jacksonville Center
01:30PM 29.2650 -83.5378 150° Southeast 466 536 28,500 -2,280 Descending Jacksonville Center
01:31PM 29.1525 -83.4633 150° Southeast 466 536 25,900 -2,340 Descending Jacksonville Center
01:32PM 29.0400 -83.3936 152° Southeast 466 536 23,900 -2,040 Descending Jacksonville Center
01:33PM 28.9361 -83.3267 151° Southeast 452 520 21,900 -2,040 Descending Jacksonville Center
01:34PM 28.8361 -83.2622 151° Southeast 439 505 19,900 -2,040 Descending Jacksonville Center
01:35PM 28.7403 -83.2028 151° Southeast 415 478 17,900 -1,980 Descending Jacksonville Center
01:36PM 28.5833 -83.1167 154° Southeast 387 445 14,900 -1,860 Descending Tampa TRACON
01:37PM 28.5000 -83.0500 145° Southeast 378 435 13,200 -1,380 Descending Tampa TRACON
01:38PM 28.4167 -83.0000 152° Southeast 341 392 12,300 -1,140 Descending Tampa TRACON
01:39PM 28.3333 -82.9833 170° South 296 341 11,100 -1,380 Descending Tampa TRACON
01:40PM 28.2500 -82.9500 161° South 304 350 9,600 -1,500 Descending Tampa TRACON
01:41PM 28.1833 -82.9000 147° Southeast 301 346 8,100 -1,620 Descending Tampa TRACON
01:42PM 28.1167 -82.8500 147° Southeast 293 337 6,400 -1,920 Descending Tampa TRACON
01:43PM 28.0500 -82.8000 146° Southeast 284 327 4,400 -1,740 Descending Tampa TRACON
01:44PM 27.9833 -82.7500 146° Southeast 269 310 3,000 -900 Descending Tampa TRACON
01:45PM 27.9167 -82.7333 168° South 258 297 2,600 -720 Descending Tampa TRACON
01:46PM 27.8667 -82.7333 180° South 182 209 1,600 -720 Descending Tampa TRACON
01:47PM 27.8333 -82.7000 139° Southeast 169 194 1,200 -600 Descending Tampa TRACON
01:48PM 27.8833 -82.6833 16° North 141 162 400 -840 Descending Tampa TRACON